TimeEST,TemperatureF,Dew PointF,Humidity,Sea Level PressureIn,VisibilityMPH,Wind Direction,Wind SpeedMPH,Gust SpeedMPH,PrecipitationIn,Events,Conditions,WindDirDegrees,DateUTC
12:55 AM,7.5,6.8,97,30.45,10.0,Calm,Calm,-,N/A,,Clear,0,2013-01-27 05:55:00
1:55 AM,3.4,1.2,91,30.47,10.0,Calm,Calm,-,N/A,,Clear,0,2013-01-27 06:55:00
2:55 AM,4.1,1.8,90,30.49,10.0,Calm,Calm,-,N/A,,Clear,0,2013-01-27 07:55:00
3:55 AM,16.7,11.7,81,30.48,10.0,NNW,4.6,-,N/A,,Clear,340,2013-01-27 08:55:00
4:55 AM,21.7,11.7,65,30.50,10.0,West,9.2,-,N/A,,Clear,280,2013-01-27 09:55:00
5:55 AM,21.2,11.5,66,30.51,10.0,WNW,6.9,-,N/A,,Clear,290,2013-01-27 10:55:00
6:55 AM,11.5,7.3,83,30.53,10.0,Calm,Calm,-,N/A,,Clear,0,2013-01-27 11:55:00
7:55 AM,16.7,10.4,76,30.56,10.0,West,6.9,-,N/A,,Clear,270,2013-01-27 12:55:00
8:55 AM,23.0,13.1,66,30.58,10.0,West,6.9,-,N/A,,Clear,270,2013-01-27 13:55:00
9:55 AM,25.5,12.9,59,30.58,10.0,West,9.2,-,N/A,,Clear,280,2013-01-27 14:55:00
10:55 AM,29.1,12.2,49,30.59,10.0,Variable,4.6,-,N/A,,Clear,0,2013-01-27 15:55:00
11:55 AM,31.6,11.8,44,30.56,10.0,Variable,4.6,-,N/A,,Clear,0,2013-01-27 16:55:00
12:55 PM,30.2,13.1,49,30.54,10.0,Calm,Calm,-,N/A,,Clear,0,2013-01-27 17:55:00
1:55 PM,31.6,11.7,44,30.51,10.0,Calm,Calm,-,N/A,,Clear,0,2013-01-27 18:55:00
2:55 PM,32.7,13.1,44,30.51,10.0,SW,6.9,-,N/A,,Clear,230,2013-01-27 19:55:00
3:55 PM,32.5,12.9,44,30.51,10.0,West,8.1,-,N/A,,Clear,260,2013-01-27 20:55:00
4:55 PM,31.5,11.7,44,30.51,10.0,WNW,3.5,-,N/A,,Clear,300,2013-01-27 21:55:00
5:55 PM,27.7,14.0,57,30.52,10.0,Calm,Calm,-,N/A,,Clear,0,2013-01-27 22:55:00
6:55 PM,26.6,13.8,59,30.53,10.0,Calm,Calm,-,N/A,,Clear,0,2013-01-27 23:55:00
7:55 PM,22.8,15.6,74,30.52,10.0,Calm,Calm,-,N/A,,Clear,0,2013-01-28 00:55:00
8:55 PM,19.9,15.8,84,30.52,10.0,Calm,Calm,-,N/A,,Scattered Clouds,0,2013-01-28 01:55:00
9:55 PM,18.5,15.6,89,30.50,10.0,Calm,Calm,-,N/A,,Clear,0,2013-01-28 02:55:00
10:55 PM,20.3,16.3,85,30.51,10.0,Calm,Calm,-,N/A,,Clear,0,2013-01-28 03:55:00
11:55 PM,21.2,16.9,83,30.50,10.0,Calm,Calm,-,N/A,,Clear,0,2013-01-28 04:55:00